sensor_id;sensor_type;location;lat;lon;timestamp;P1;durP1;ratioP1;P2;durP2;ratioP2
21675;SDS011;10999;51.332;9.458;2023-03-04T00:01:15;20.27;;;7.72;;
21675;SDS011;10999;51.332;9.458;2023-03-04T00:03:42;23.13;;;8.35;;
21675;SDS011;10999;51.332;9.458;2023-03-04T00:06:08;19.70;;;7.45;;
21675;SDS011;10999;51.332;9.458;2023-03-04T00:08:35;19.70;;;7.60;;
21675;SDS011;10999;51.332;9.458;2023-03-04T00:11:03;20.83;;;8.18;;
21675;SDS011;10999;51.332;9.458;2023-03-04T00:13:30;20.00;;;7.45;;
21675;SDS011;10999;51.332;9.458;2023-03-04T00:15:56;18.92;;;7.35;;
21675;SDS011;10999;51.332;9.458;2023-03-04T00:18:23;17.98;;;6.47;;
21675;SDS011;10999;51.332;9.458;2023-03-04T00:20:50;18.95;;;7.20;;
21675;SDS011;10999;51.332;9.458;2023-03-04T00:23:16;20.73;;;9.10;;
21675;SDS011;10999;51.332;9.458;2023-03-04T00:25:43;19.48;;;7.53;;
21675;SDS011;10999;51.332;9.458;2023-03-04T00:28:10;15.75;;;7.18;;
21675;SDS011;10999;51.332;9.458;2023-03-04T00:30:36;17.42;;;6.38;;
21675;SDS011;10999;51.332;9.458;2023-03-04T00:33:03;18.88;;;7.10;;
21675;SDS011;10999;51.332;9.458;2023-03-04T00:35:30;15.35;;;6.63;;
21675;SDS011;10999;51.332;9.458;2023-03-04T00:37:56;18.33;;;6.97;;
21675;SDS011;10999;51.332;9.458;2023-03-04T00:40:23;16.85;;;7.03;;
21675;SDS011;10999;51.332;9.458;2023-03-04T00:42:50;18.00;;;7.50;;
21675;SDS011;10999;51.332;9.458;2023-03-04T00:45:17;15.60;;;6.85;;
21675;SDS011;10999;51.332;9.458;2023-03-04T00:47:44;20.77;;;7.32;;
21675;SDS011;10999;51.332;9.458;2023-03-04T00:50:10;15.98;;;6.38;;
21675;SDS011;10999;51.332;9.458;2023-03-04T00:52:37;18.33;;;6.85;;
21675;SDS011;10999;51.332;9.458;2023-03-04T00:55:04;16.20;;;6.97;;
21675;SDS011;10999;51.332;9.458;2023-03-04T00:57:31;20.42;;;7.85;;
21675;SDS011;10999;51.332;9.458;2023-03-04T00:59:58;13.65;;;6.35;;
21675;SDS011;10999;51.332;9.458;2023-03-04T01:02:25;15.15;;;6.50;;
21675;SDS011;10999;51.332;9.458;2023-03-04T01:04:51;19.65;;;7.22;;
21675;SDS011;10999;51.332;9.458;2023-03-04T01:07:18;21.17;;;7.68;;
21675;SDS011;10999;51.332;9.458;2023-03-04T01:09:45;15.40;;;5.97;;
21675;SDS011;10999;51.332;9.458;2023-03-04T01:12:11;19.38;;;6.60;;
21675;SDS011;10999;51.332;9.458;2023-03-04T01:14:38;16.15;;;6.65;;
21675;SDS011;10999;51.332;9.458;2023-03-04T01:17:05;13.82;;;6.13;;
21675;SDS011;10999;51.332;9.458;2023-03-04T01:19:32;17.27;;;6.55;;
21675;SDS011;10999;51.332;9.458;2023-03-04T01:21:58;18.38;;;6.47;;
21675;SDS011;10999;51.332;9.458;2023-03-04T01:24:25;19.17;;;6.68;;
21675;SDS011;10999;51.332;9.458;2023-03-04T01:26:52;14.70;;;5.97;;
21675;SDS011;10999;51.332;9.458;2023-03-04T01:29:19;15.70;;;6.05;;
21675;SDS011;10999;51.332;9.458;2023-03-04T01:31:45;18.52;;;6.22;;
21675;SDS011;10999;51.332;9.458;2023-03-04T01:34:12;13.52;;;5.30;;
21675;SDS011;10999;51.332;9.458;2023-03-04T01:36:39;21.83;;;6.05;;
21675;SDS011;10999;51.332;9.458;2023-03-04T01:39:05;15.23;;;5.60;;
21675;SDS011;10999;51.332;9.458;2023-03-04T01:41:32;14.57;;;5.72;;
21675;SDS011;10999;51.332;9.458;2023-03-04T01:43:59;12.90;;;4.65;;
21675;SDS011;10999;51.332;9.458;2023-03-04T01:46:28;16.70;;;5.72;;
21675;SDS011;10999;51.332;9.458;2023-03-04T01:48:56;20.80;;;5.75;;
21675;SDS011;10999;51.332;9.458;2023-03-04T01:51:23;14.00;;;4.95;;
21675;SDS011;10999;51.332;9.458;2023-03-04T01:53:50;13.15;;;4.45;;
21675;SDS011;10999;51.332;9.458;2023-03-04T01:56:22;18.92;;;5.50;;
21675;SDS011;10999;51.332;9.458;2023-03-04T01:59:13;15.50;;;5.07;;
21675;SDS011;10999;51.332;9.458;2023-03-04T02:01:45;17.58;;;5.13;;
21675;SDS011;10999;51.332;9.458;2023-03-04T02:04:14;17.52;;;4.85;;
21675;SDS011;10999;51.332;9.458;2023-03-04T02:06:42;13.55;;;4.82;;
21675;SDS011;10999;51.332;9.458;2023-03-04T02:09:09;18.50;;;4.85;;
21675;SDS011;10999;51.332;9.458;2023-03-04T02:11:37;12.00;;;4.82;;
21675;SDS011;10999;51.332;9.458;2023-03-04T02:14:04;18.08;;;5.32;;
21675;SDS011;10999;51.332;9.458;2023-03-04T02:16:32;14.93;;;5.30;;
21675;SDS011;10999;51.332;9.458;2023-03-04T02:18:59;12.90;;;3.88;;
21675;SDS011;10999;51.332;9.458;2023-03-04T02:21:31;13.07;;;5.20;;
21675;SDS011;10999;51.332;9.458;2023-03-04T02:26:30;21.67;;;5.78;;
21675;SDS011;10999;51.332;9.458;2023-03-04T02:28:58;16.80;;;5.97;;
21675;SDS011;10999;51.332;9.458;2023-03-04T02:31:30;16.70;;;4.75;;
21675;SDS011;10999;51.332;9.458;2023-03-04T02:33:59;10.57;;;4.60;;
21675;SDS011;10999;51.332;9.458;2023-03-04T02:36:28;13.98;;;5.28;;
21675;SDS011;10999;51.332;9.458;2023-03-04T02:38:59;19.48;;;4.80;;
21675;SDS011;10999;51.332;9.458;2023-03-04T02:41:27;13.57;;;4.38;;
21675;SDS011;10999;51.332;9.458;2023-03-04T02:43:55;15.48;;;4.72;;
21675;SDS011;10999;51.332;9.458;2023-03-04T02:46:22;15.90;;;5.70;;
21675;SDS011;10999;51.332;9.458;2023-03-04T02:48:49;14.55;;;4.85;;
21675;SDS011;10999;51.332;9.458;2023-03-04T02:51:17;16.33;;;5.97;;
21675;SDS011;10999;51.332;9.458;2023-03-04T02:53:43;16.52;;;6.53;;
21675;SDS011;10999;51.332;9.458;2023-03-04T02:56:10;11.90;;;4.57;;
21675;SDS011;10999;51.332;9.458;2023-03-04T02:58:37;13.80;;;4.57;;
21675;SDS011;10999;51.332;9.458;2023-03-04T03:01:05;13.98;;;4.80;;
21675;SDS011;10999;51.332;9.458;2023-03-04T03:03:32;19.00;;;4.72;;
21675;SDS011;10999;51.332;9.458;2023-03-04T03:05:58;13.65;;;4.93;;
21675;SDS011;10999;51.332;9.458;2023-03-04T03:08:25;12.80;;;4.35;;
21675;SDS011;10999;51.332;9.458;2023-03-04T03:10:52;16.63;;;3.90;;
21675;SDS011;10999;51.332;9.458;2023-03-04T03:13:18;12.10;;;3.88;;
21675;SDS011;10999;51.332;9.458;2023-03-04T03:15:45;17.83;;;4.63;;
21675;SDS011;10999;51.332;9.458;2023-03-04T03:18:15;16.80;;;5.03;;
21675;SDS011;10999;51.332;9.458;2023-03-04T03:20:42;16.13;;;4.45;;
21675;SDS011;10999;51.332;9.458;2023-03-04T03:23:09;14.80;;;4.38;;
21675;SDS011;10999;51.332;9.458;2023-03-04T03:25:35;16.48;;;4.97;;
21675;SDS011;10999;51.332;9.458;2023-03-04T03:28:02;13.93;;;3.65;;
21675;SDS011;10999;51.332;9.458;2023-03-04T03:30:29;14.13;;;3.67;;
21675;SDS011;10999;51.332;9.458;2023-03-04T03:32:56;11.48;;;4.05;;
21675;SDS011;10999;51.332;9.458;2023-03-04T03:35:23;15.27;;;3.50;;
21675;SDS011;10999;51.332;9.458;2023-03-04T03:37:49;14.82;;;3.22;;
21675;SDS011;10999;51.332;9.458;2023-03-04T03:40:16;15.35;;;3.92;;
21675;SDS011;10999;51.332;9.458;2023-03-04T03:42:43;15.60;;;4.03;;
21675;SDS011;10999;51.332;9.458;2023-03-04T03:45:10;14.63;;;3.17;;
21675;SDS011;10999;51.332;9.458;2023-03-04T03:47:37;10.02;;;3.33;;
21675;SDS011;10999;51.332;9.458;2023-03-04T03:50:04;11.88;;;3.88;;
21675;SDS011;10999;51.332;9.458;2023-03-04T03:52:32;12.68;;;4.00;;
21675;SDS011;10999;51.332;9.458;2023-03-04T03:54:58;12.68;;;4.00;;
21675;SDS011;10999;51.332;9.458;2023-03-04T03:57:27;19.02;;;4.35;;
21675;SDS011;10999;51.332;9.458;2023-03-04T03:59:55;15.38;;;3.70;;
21675;SDS011;10999;51.332;9.458;2023-03-04T04:02:22;13.40;;;4.15;;
21675;SDS011;10999;51.332;9.458;2023-03-04T04:04:49;17.17;;;5.25;;
21675;SDS011;10999;51.332;9.458;2023-03-04T04:07:15;17.15;;;3.75;;
21675;SDS011;10999;51.332;9.458;2023-03-04T04:09:43;15.25;;;4.38;;
21675;SDS011;10999;51.332;9.458;2023-03-04T04:12:10;12.50;;;4.07;;
21675;SDS011;10999;51.332;9.458;2023-03-04T04:14:39;18.05;;;3.67;;
21675;SDS011;10999;51.332;9.458;2023-03-04T04:17:06;11.38;;;3.60;;
21675;SDS011;10999;51.332;9.458;2023-03-04T04:19:33;14.85;;;3.55;;
21675;SDS011;10999;51.332;9.458;2023-03-04T04:22:00;11.70;;;3.30;;
21675;SDS011;10999;51.332;9.458;2023-03-04T04:24:28;12.50;;;3.42;;
21675;SDS011;10999;51.332;9.458;2023-03-04T04:26:55;14.40;;;3.30;;
21675;SDS011;10999;51.332;9.458;2023-03-04T04:29:22;15.32;;;3.70;;
21675;SDS011;10999;51.332;9.458;2023-03-04T04:31:49;14.00;;;3.55;;
21675;SDS011;10999;51.332;9.458;2023-03-04T04:34:16;12.30;;;3.85;;
21675;SDS011;10999;51.332;9.458;2023-03-04T04:36:42;12.63;;;3.53;;
21675;SDS011;10999;51.332;9.458;2023-03-04T04:39:09;8.65;;;2.95;;
21675;SDS011;10999;51.332;9.458;2023-03-04T04:41:37;12.50;;;3.22;;
21675;SDS011;10999;51.332;9.458;2023-03-04T04:44:05;9.88;;;2.83;;
21675;SDS011;10999;51.332;9.458;2023-03-04T04:46:33;12.73;;;2.95;;
21675;SDS011;10999;51.332;9.458;2023-03-04T04:49:00;10.55;;;2.65;;
21675;SDS011;10999;51.332;9.458;2023-03-04T04:51:27;9.68;;;3.05;;
21675;SDS011;10999;51.332;9.458;2023-03-04T04:53:54;10.77;;;2.78;;
21675;SDS011;10999;51.332;9.458;2023-03-04T04:56:22;11.07;;;3.30;;
21675;SDS011;10999;51.332;9.458;2023-03-04T04:58:58;9.30;;;2.95;;
21675;SDS011;10999;51.332;9.458;2023-03-04T05:01:27;10.60;;;3.08;;
21675;SDS011;10999;51.332;9.458;2023-03-04T05:03:54;11.68;;;2.80;;
21675;SDS011;10999;51.332;9.458;2023-03-04T05:06:21;12.93;;;2.60;;
21675;SDS011;10999;51.332;9.458;2023-03-04T05:08:49;15.20;;;3.90;;
21675;SDS011;10999;51.332;9.458;2023-03-04T05:11:16;9.43;;;3.65;;
21675;SDS011;10999;51.332;9.458;2023-03-04T05:13:44;9.93;;;2.60;;
21675;SDS011;10999;51.332;9.458;2023-03-04T05:16:12;15.65;;;3.60;;
21675;SDS011;10999;51.332;9.458;2023-03-04T05:18:39;9.77;;;2.80;;
21675;SDS011;10999;51.332;9.458;2023-03-04T05:21:06;9.52;;;2.30;;
21675;SDS011;10999;51.332;9.458;2023-03-04T05:23:34;11.88;;;3.38;;
21675;SDS011;10999;51.332;9.458;2023-03-04T05:26:04;13.48;;;3.50;;
21675;SDS011;10999;51.332;9.458;2023-03-04T05:28:31;13.60;;;2.88;;
21675;SDS011;10999;51.332;9.458;2023-03-04T05:30:58;11.57;;;2.75;;
21675;SDS011;10999;51.332;9.458;2023-03-04T05:33:25;14.52;;;3.13;;
21675;SDS011;10999;51.332;9.458;2023-03-04T05:35:52;12.30;;;3.00;;
21675;SDS011;10999;51.332;9.458;2023-03-04T05:38:20;12.10;;;2.60;;
21675;SDS011;10999;51.332;9.458;2023-03-04T05:40:47;11.23;;;3.05;;
21675;SDS011;10999;51.332;9.458;2023-03-04T05:43:14;11.70;;;2.75;;
21675;SDS011;10999;51.332;9.458;2023-03-04T05:45:41;7.93;;;2.55;;
21675;SDS011;10999;51.332;9.458;2023-03-04T05:48:08;11.73;;;2.75;;
21675;SDS011;10999;51.332;9.458;2023-03-04T05:50:35;15.52;;;3.30;;
21675;SDS011;10999;51.332;9.458;2023-03-04T05:53:01;8.45;;;3.13;;
21675;SDS011;10999;51.332;9.458;2023-03-04T05:55:28;12.40;;;2.47;;
21675;SDS011;10999;51.332;9.458;2023-03-04T05:57:55;8.13;;;2.60;;
21675;SDS011;10999;51.332;9.458;2023-03-04T06:00:23;13.50;;;3.72;;
21675;SDS011;10999;51.332;9.458;2023-03-04T06:02:50;10.43;;;3.17;;
21675;SDS011;10999;51.332;9.458;2023-03-04T06:05:17;9.55;;;2.65;;
21675;SDS011;10999;51.332;9.458;2023-03-04T06:07:44;12.18;;;2.22;;
21675;SDS011;10999;51.332;9.458;2023-03-04T06:10:12;11.40;;;2.83;;
21675;SDS011;10999;51.332;9.458;2023-03-04T06:12:40;14.40;;;4.15;;
21675;SDS011;10999;51.332;9.458;2023-03-04T06:15:08;12.13;;;3.08;;
21675;SDS011;10999;51.332;9.458;2023-03-04T06:17:36;18.67;;;3.60;;
21675;SDS011;10999;51.332;9.458;2023-03-04T06:20:07;14.80;;;2.88;;
21675;SDS011;10999;51.332;9.458;2023-03-04T06:22:35;10.80;;;2.80;;
21675;SDS011;10999;51.332;9.458;2023-03-04T06:25:02;11.05;;;2.50;;
21675;SDS011;10999;51.332;9.458;2023-03-04T06:27:29;16.48;;;3.00;;
21675;SDS011;10999;51.332;9.458;2023-03-04T06:29:56;10.95;;;2.90;;
21675;SDS011;10999;51.332;9.458;2023-03-04T06:32:22;8.25;;;3.20;;
21675;SDS011;10999;51.332;9.458;2023-03-04T06:34:49;13.00;;;2.97;;
21675;SDS011;10999;51.332;9.458;2023-03-04T06:37:16;9.07;;;3.05;;
21675;SDS011;10999;51.332;9.458;2023-03-04T06:39:43;11.90;;;2.70;;
21675;SDS011;10999;51.332;9.458;2023-03-04T06:42:11;9.43;;;2.75;;
21675;SDS011;10999;51.332;9.458;2023-03-04T06:44:38;13.82;;;2.95;;
21675;SDS011;10999;51.332;9.458;2023-03-04T06:47:05;14.60;;;3.42;;
21675;SDS011;10999;51.332;9.458;2023-03-04T06:49:32;10.75;;;2.40;;
21675;SDS011;10999;51.332;9.458;2023-03-04T06:51:58;11.90;;;3.13;;
21675;SDS011;10999;51.332;9.458;2023-03-04T06:54:25;12.43;;;2.70;;
21675;SDS011;10999;51.332;9.458;2023-03-04T06:56:52;10.70;;;2.92;;
21675;SDS011;10999;51.332;9.458;2023-03-04T06:59:19;11.27;;;2.45;;
21675;SDS011;10999;51.332;9.458;2023-03-04T07:01:45;9.60;;;3.22;;
21675;SDS011;10999;51.332;9.458;2023-03-04T07:04:12;8.48;;;2.40;;
21675;SDS011;10999;51.332;9.458;2023-03-04T07:06:39;10.00;;;1.92;;
21675;SDS011;10999;51.332;9.458;2023-03-04T07:09:06;12.82;;;2.58;;
21675;SDS011;10999;51.332;9.458;2023-03-04T07:11:33;9.23;;;2.50;;
21675;SDS011;10999;51.332;9.458;2023-03-04T07:14:00;10.63;;;2.55;;
21675;SDS011;10999;51.332;9.458;2023-03-04T07:16:26;9.00;;;2.42;;
21675;SDS011;10999;51.332;9.458;2023-03-04T07:18:53;11.60;;;2.60;;
21675;SDS011;10999;51.332;9.458;2023-03-04T07:21:20;8.15;;;2.08;;
21675;SDS011;10999;51.332;9.458;2023-03-04T07:23:47;8.93;;;2.58;;
21675;SDS011;10999;51.332;9.458;2023-03-04T07:26:14;11.93;;;2.90;;
21675;SDS011;10999;51.332;9.458;2023-03-04T07:28:41;7.22;;;2.08;;
21675;SDS011;10999;51.332;9.458;2023-03-04T07:31:19;12.10;;;2.83;;
21675;SDS011;10999;51.332;9.458;2023-03-04T07:33:47;8.88;;;2.22;;
21675;SDS011;10999;51.332;9.458;2023-03-04T07:36:13;9.10;;;2.20;;
21675;SDS011;10999;51.332;9.458;2023-03-04T07:38:44;11.38;;;2.63;;
21675;SDS011;10999;51.332;9.458;2023-03-04T07:41:12;8.63;;;2.15;;
21675;SDS011;10999;51.332;9.458;2023-03-04T07:43:39;8.63;;;2.95;;
21675;SDS011;10999;51.332;9.458;2023-03-04T07:46:05;7.88;;;2.25;;
21675;SDS011;10999;51.332;9.458;2023-03-04T07:48:32;12.07;;;2.65;;
21675;SDS011;10999;51.332;9.458;2023-03-04T07:53:40;8.38;;;2.20;;
21675;SDS011;10999;51.332;9.458;2023-03-04T07:56:11;11.77;;;2.38;;
21675;SDS011;10999;51.332;9.458;2023-03-04T07:58:40;11.02;;;2.50;;
21675;SDS011;10999;51.332;9.458;2023-03-04T08:01:08;8.10;;;2.17;;
21675;SDS011;10999;51.332;9.458;2023-03-04T08:03:39;10.77;;;2.13;;
21675;SDS011;10999;51.332;9.458;2023-03-04T08:06:07;7.53;;;1.98;;
21675;SDS011;10999;51.332;9.458;2023-03-04T08:08:35;6.65;;;2.08;;
21675;SDS011;10999;51.332;9.458;2023-03-04T08:11:06;6.82;;;1.63;;
21675;SDS011;10999;51.332;9.458;2023-03-04T08:13:34;8.95;;;1.85;;
21675;SDS011;10999;51.332;9.458;2023-03-04T08:16:01;10.55;;;1.90;;
21675;SDS011;10999;51.332;9.458;2023-03-04T08:18:29;7.68;;;2.20;;
21675;SDS011;10999;51.332;9.458;2023-03-04T08:20:56;6.43;;;1.85;;
21675;SDS011;10999;51.332;9.458;2023-03-04T08:23:23;7.78;;;2.35;;
21675;SDS011;10999;51.332;9.458;2023-03-04T08:25:50;7.03;;;1.80;;
21675;SDS011;10999;51.332;9.458;2023-03-04T08:28:17;9.60;;;2.10;;
21675;SDS011;10999;51.332;9.458;2023-03-04T08:30:44;8.18;;;2.00;;
21675;SDS011;10999;51.332;9.458;2023-03-04T08:33:17;6.88;;;2.00;;
21675;SDS011;10999;51.332;9.458;2023-03-04T08:35:44;9.18;;;1.85;;
21675;SDS011;10999;51.332;9.458;2023-03-04T08:38:10;7.22;;;2.15;;
21675;SDS011;10999;51.332;9.458;2023-03-04T08:40:37;7.50;;;1.95;;
21675;SDS011;10999;51.332;9.458;2023-03-04T08:43:04;8.75;;;1.60;;
21675;SDS011;10999;51.332;9.458;2023-03-04T08:45:30;5.25;;;1.33;;
21675;SDS011;10999;51.332;9.458;2023-03-04T08:47:57;5.03;;;1.58;;
21675;SDS011;10999;51.332;9.458;2023-03-04T08:50:24;9.55;;;1.45;;
21675;SDS011;10999;51.332;9.458;2023-03-04T08:52:52;3.40;;;1.23;;
21675;SDS011;10999;51.332;9.458;2023-03-04T08:55:19;6.30;;;1.73;;
21675;SDS011;10999;51.332;9.458;2023-03-04T08:57:45;4.13;;;1.65;;
21675;SDS011;10999;51.332;9.458;2023-03-04T09:00:12;6.00;;;1.65;;
21675;SDS011;10999;51.332;9.458;2023-03-04T09:02:39;4.10;;;1.30;;
21675;SDS011;10999;51.332;9.458;2023-03-04T09:05:06;4.25;;;1.10;;
21675;SDS011;10999;51.332;9.458;2023-03-04T09:07:33;7.78;;;1.55;;
21675;SDS011;10999;51.332;9.458;2023-03-04T09:10:00;5.22;;;1.38;;
21675;SDS011;10999;51.332;9.458;2023-03-04T09:12:27;5.50;;;1.20;;
21675;SDS011;10999;51.332;9.458;2023-03-04T09:14:53;5.30;;;1.13;;
21675;SDS011;10999;51.332;9.458;2023-03-04T09:17:36;3.25;;;1.17;;
21675;SDS011;10999;51.332;9.458;2023-03-04T09:20:03;7.65;;;1.63;;
21675;SDS011;10999;51.332;9.458;2023-03-04T09:22:30;3.88;;;1.25;;
21675;SDS011;10999;51.332;9.458;2023-03-04T09:24:57;4.45;;;1.08;;
21675;SDS011;10999;51.332;9.458;2023-03-04T09:27:24;6.60;;;1.58;;
21675;SDS011;10999;51.332;9.458;2023-03-04T09:29:51;7.43;;;1.33;;
21675;SDS011;10999;51.332;9.458;2023-03-04T09:32:17;3.45;;;0.90;;
21675;SDS011;10999;51.332;9.458;2023-03-04T09:34:44;4.07;;;1.55;;
21675;SDS011;10999;51.332;9.458;2023-03-04T09:37:11;7.18;;;1.25;;
21675;SDS011;10999;51.332;9.458;2023-03-04T09:39:37;4.40;;;1.05;;
21675;SDS011;10999;51.332;9.458;2023-03-04T09:42:05;5.75;;;1.33;;
21675;SDS011;10999;51.332;9.458;2023-03-04T09:47:12;4.05;;;0.90;;
21675;SDS011;10999;51.332;9.458;2023-03-04T09:49:42;8.43;;;1.83;;
21675;SDS011;10999;51.332;9.458;2023-03-04T09:55:03;4.97;;;1.50;;
21675;SDS011;10999;51.332;9.458;2023-03-04T10:02:42;2.58;;;0.90;;
21675;SDS011;10999;51.332;9.458;2023-03-04T10:05:17;4.70;;;1.23;;
21675;SDS011;10999;51.332;9.458;2023-03-04T10:07:54;4.60;;;1.13;;
21675;SDS011;10999;51.332;9.458;2023-03-04T10:10:34;3.60;;;1.17;;
21675;SDS011;10999;51.332;9.458;2023-03-04T10:13:05;5.18;;;1.08;;
21675;SDS011;10999;51.332;9.458;2023-03-04T10:15:42;5.25;;;1.23;;
21675;SDS011;10999;51.332;9.458;2023-03-04T10:18:26;4.03;;;1.20;;
21675;SDS011;10999;51.332;9.458;2023-03-04T10:23:33;4.60;;;1.48;;
21675;SDS011;10999;51.332;9.458;2023-03-04T10:26:09;5.85;;;1.40;;
21675;SDS011;10999;51.332;9.458;2023-03-04T10:28:39;6.60;;;1.73;;
21675;SDS011;10999;51.332;9.458;2023-03-04T10:33:34;5.18;;;1.40;;
21675;SDS011;10999;51.332;9.458;2023-03-04T10:39:10;4.35;;;1.45;;
21675;SDS011;10999;51.332;9.458;2023-03-04T10:41:43;5.97;;;1.55;;
21675;SDS011;10999;51.332;9.458;2023-03-04T10:46:43;3.53;;;0.98;;
21675;SDS011;10999;51.332;9.458;2023-03-04T10:49:13;2.50;;;1.10;;
21675;SDS011;10999;51.332;9.458;2023-03-04T10:54:24;4.30;;;1.27;;
21675;SDS011;10999;51.332;9.458;2023-03-04T10:57:03;5.18;;;1.15;;
21675;SDS011;10999;51.332;9.458;2023-03-04T11:02:27;4.75;;;1.05;;
21675;SDS011;10999;51.332;9.458;2023-03-04T11:07:51;2.33;;;0.80;;
21675;SDS011;10999;51.332;9.458;2023-03-04T11:13:07;3.63;;;0.90;;
21675;SDS011;10999;51.332;9.458;2023-03-04T11:18:37;3.10;;;0.75;;
21675;SDS011;10999;51.332;9.458;2023-03-04T11:21:13;4.25;;;0.88;;
21675;SDS011;10999;51.332;9.458;2023-03-04T11:23:58;6.43;;;1.67;;
21675;SDS011;10999;51.332;9.458;2023-03-04T11:26:29;9.73;;;2.78;;
21675;SDS011;10999;51.332;9.458;2023-03-04T11:34:40;3.80;;;0.80;;
21675;SDS011;10999;51.332;9.458;2023-03-04T11:37:36;2.30;;;0.90;;
21675;SDS011;10999;51.332;9.458;2023-03-04T11:40:20;2.20;;;0.80;;
21675;SDS011;10999;51.332;9.458;2023-03-04T11:43:16;3.88;;;0.93;;
21675;SDS011;10999;51.332;9.458;2023-03-04T11:48:38;2.47;;;0.75;;
21675;SDS011;10999;51.332;9.458;2023-03-04T11:57:12;2.10;;;0.70;;
21675;SDS011;10999;51.332;9.458;2023-03-04T12:03:19;3.08;;;0.60;;
21675;SDS011;10999;51.332;9.458;2023-03-04T12:06:11;3.20;;;1.23;;
21675;SDS011;10999;51.332;9.458;2023-03-04T12:09:00;3.85;;;0.80;;
21675;SDS011;10999;51.332;9.458;2023-03-04T12:12:02;2.05;;;0.80;;
21675;SDS011;10999;51.332;9.458;2023-03-04T12:14:58;3.72;;;0.90;;
21675;SDS011;10999;51.332;9.458;2023-03-04T12:22:50;2.78;;;0.90;;
21675;SDS011;10999;51.332;9.458;2023-03-04T12:44:55;2.08;;;0.77;;
21675;SDS011;10999;51.332;9.458;2023-03-04T12:47:54;1.85;;;0.70;;
21675;SDS011;10999;51.332;9.458;2023-03-04T12:56:08;3.67;;;1.10;;
21675;SDS011;10999;51.332;9.458;2023-03-04T12:58:50;2.75;;;0.70;;
21675;SDS011;10999;51.332;9.458;2023-03-04T13:01:21;3.33;;;0.90;;
21675;SDS011;10999;51.332;9.458;2023-03-04T13:04:08;4.00;;;0.90;;
21675;SDS011;10999;51.332;9.458;2023-03-04T13:06:48;3.10;;;0.80;;
21675;SDS011;10999;51.332;9.458;2023-03-04T13:12:26;1.80;;;0.88;;
21675;SDS011;10999;51.332;9.458;2023-03-04T13:17:35;2.60;;;0.82;;
21675;SDS011;10999;51.332;9.458;2023-03-04T13:23:03;4.00;;;1.20;;
21675;SDS011;10999;51.332;9.458;2023-03-04T13:25:40;4.25;;;0.90;;
21675;SDS011;10999;51.332;9.458;2023-03-04T13:43:43;5.15;;;1.40;;
21675;SDS011;10999;51.332;9.458;2023-03-04T13:56:33;6.43;;;1.50;;
21675;SDS011;10999;51.332;9.458;2023-03-04T14:04:01;4.22;;;1.42;;
21675;SDS011;10999;51.332;9.458;2023-03-04T14:06:42;6.85;;;1.75;;
21675;SDS011;10999;51.332;9.458;2023-03-04T14:09:14;6.00;;;1.55;;
21675;SDS011;10999;51.332;9.458;2023-03-04T14:11:45;5.65;;;1.85;;
21675;SDS011;10999;51.332;9.458;2023-03-04T14:14:15;6.30;;;1.60;;
21675;SDS011;10999;51.332;9.458;2023-03-04T14:16:52;4.70;;;1.60;;
21675;SDS011;10999;51.332;9.458;2023-03-04T14:19:24;5.82;;;1.60;;
21675;SDS011;10999;51.332;9.458;2023-03-04T14:22:01;5.70;;;1.30;;
21675;SDS011;10999;51.332;9.458;2023-03-04T14:24:27;5.45;;;1.52;;
21675;SDS011;10999;51.332;9.458;2023-03-04T14:27:03;6.30;;;1.70;;
21675;SDS011;10999;51.332;9.458;2023-03-04T14:29:38;6.03;;;1.55;;
21675;SDS011;10999;51.332;9.458;2023-03-04T14:32:06;10.18;;;1.67;;
21675;SDS011;10999;51.332;9.458;2023-03-04T14:34:37;3.65;;;1.30;;
21675;SDS011;10999;51.332;9.458;2023-03-04T14:37:18;7.30;;;1.65;;
21675;SDS011;10999;51.332;9.458;2023-03-04T14:39:51;7.97;;;2.22;;
21675;SDS011;10999;51.332;9.458;2023-03-04T14:42:23;5.93;;;1.60;;
21675;SDS011;10999;51.332;9.458;2023-03-04T14:44:55;5.10;;;1.15;;
21675;SDS011;10999;51.332;9.458;2023-03-04T14:47:30;9.27;;;1.50;;
21675;SDS011;10999;51.332;9.458;2023-03-04T14:50:03;6.43;;;1.40;;
21675;SDS011;10999;51.332;9.458;2023-03-04T14:52:39;6.30;;;1.42;;
21675;SDS011;10999;51.332;9.458;2023-03-04T14:57:41;6.20;;;1.98;;
21675;SDS011;10999;51.332;9.458;2023-03-04T15:02:52;6.90;;;1.60;;
21675;SDS011;10999;51.332;9.458;2023-03-04T15:05:43;8.02;;;1.98;;
21675;SDS011;10999;51.332;9.458;2023-03-04T15:08:42;5.05;;;1.73;;
21675;SDS011;10999;51.332;9.458;2023-03-04T15:11:04;4.55;;;1.25;;
21675;SDS011;10999;51.332;9.458;2023-03-04T15:13:36;7.22;;;1.75;;
21675;SDS011;10999;51.332;9.458;2023-03-04T15:16:11;5.75;;;1.95;;
21675;SDS011;10999;51.332;9.458;2023-03-04T15:18:52;4.88;;;1.55;;
21675;SDS011;10999;51.332;9.458;2023-03-04T15:23:47;10.20;;;2.25;;
21675;SDS011;10999;51.332;9.458;2023-03-04T15:26:13;6.53;;;1.75;;
21675;SDS011;10999;51.332;9.458;2023-03-04T15:28:40;9.55;;;1.98;;
21675;SDS011;10999;51.332;9.458;2023-03-04T15:31:21;6.97;;;1.60;;
21675;SDS011;10999;51.332;9.458;2023-03-04T15:33:49;7.97;;;2.03;;
21675;SDS011;10999;51.332;9.458;2023-03-04T15:36:20;6.00;;;1.83;;
21675;SDS011;10999;51.332;9.458;2023-03-04T15:38:49;6.40;;;1.65;;
21675;SDS011;10999;51.332;9.458;2023-03-04T15:41:21;7.88;;;1.73;;
21675;SDS011;10999;51.332;9.458;2023-03-04T15:43:50;7.85;;;1.70;;
21675;SDS011;10999;51.332;9.458;2023-03-04T15:46:18;8.05;;;1.90;;
21675;SDS011;10999;51.332;9.458;2023-03-04T15:48:45;4.63;;;1.67;;
21675;SDS011;10999;51.332;9.458;2023-03-04T15:51:16;11.38;;;1.77;;
21675;SDS011;10999;51.332;9.458;2023-03-04T15:53:46;7.30;;;1.95;;
21675;SDS011;10999;51.332;9.458;2023-03-04T15:58:56;6.22;;;1.60;;
21675;SDS011;10999;51.332;9.458;2023-03-04T16:01:25;6.72;;;1.52;;
21675;SDS011;10999;51.332;9.458;2023-03-04T16:03:53;6.60;;;1.60;;
21675;SDS011;10999;51.332;9.458;2023-03-04T16:06:19;6.13;;;1.90;;
21675;SDS011;10999;51.332;9.458;2023-03-04T16:08:49;5.13;;;1.60;;
21675;SDS011;10999;51.332;9.458;2023-03-04T16:11:35;11.20;;;2.45;;
21675;SDS011;10999;51.332;9.458;2023-03-04T16:14:07;8.13;;;1.83;;
21675;SDS011;10999;51.332;9.458;2023-03-04T16:16:36;9.45;;;2.67;;
21675;SDS011;10999;51.332;9.458;2023-03-04T16:19:03;6.80;;;1.83;;
21675;SDS011;10999;51.332;9.458;2023-03-04T16:21:29;6.72;;;2.40;;
21675;SDS011;10999;51.332;9.458;2023-03-04T16:23:56;7.13;;;1.73;;
21675;SDS011;10999;51.332;9.458;2023-03-04T16:26:23;7.85;;;1.67;;
21675;SDS011;10999;51.332;9.458;2023-03-04T16:28:52;3.75;;;1.25;;
21675;SDS011;10999;51.332;9.458;2023-03-04T16:31:19;3.80;;;1.15;;
21675;SDS011;10999;51.332;9.458;2023-03-04T16:33:47;5.13;;;1.30;;
21675;SDS011;10999;51.332;9.458;2023-03-04T16:36:18;6.63;;;2.00;;
21675;SDS011;10999;51.332;9.458;2023-03-04T16:38:47;4.28;;;1.10;;
21675;SDS011;10999;51.332;9.458;2023-03-04T16:41:15;7.45;;;1.38;;
21675;SDS011;10999;51.332;9.458;2023-03-04T16:43:45;5.32;;;1.67;;
21675;SDS011;10999;51.332;9.458;2023-03-04T16:46:12;4.57;;;1.23;;
21675;SDS011;10999;51.332;9.458;2023-03-04T16:48:39;7.50;;;1.30;;
21675;SDS011;10999;51.332;9.458;2023-03-04T16:51:13;7.80;;;1.20;;
21675;SDS011;10999;51.332;9.458;2023-03-04T16:53:42;5.85;;;1.10;;
21675;SDS011;10999;51.332;9.458;2023-03-04T16:56:15;5.47;;;1.92;;
21675;SDS011;10999;51.332;9.458;2023-03-04T16:58:43;7.35;;;1.67;;
21675;SDS011;10999;51.332;9.458;2023-03-04T17:01:13;4.65;;;1.20;;
21675;SDS011;10999;51.332;9.458;2023-03-04T17:03:45;10.50;;;1.80;;
21675;SDS011;10999;51.332;9.458;2023-03-04T17:06:12;5.50;;;1.73;;
21675;SDS011;10999;51.332;9.458;2023-03-04T17:08:40;5.65;;;1.52;;
21675;SDS011;10999;51.332;9.458;2023-03-04T17:11:07;5.18;;;1.30;;
21675;SDS011;10999;51.332;9.458;2023-03-04T17:13:37;7.57;;;2.25;;